createdAt,value
2023-12-13T00:02:04.717Z,97088.34
2023-12-13T00:05:06.839Z,97082.31
2023-12-13T00:08:08.491Z,97082.31
2023-12-13T00:11:10.124Z,97071.25
2023-12-13T00:14:11.850Z,97072.19
2023-12-13T00:17:15.688Z,97069.78
2023-12-13T00:20:17.641Z,97063.78
2023-12-13T00:23:19.384Z,97064.72
2023-12-13T00:26:21.087Z,97061.19
2023-12-13T00:29:22.717Z,97049.06
2023-12-13T00:32:24.654Z,97042.16
2023-12-13T00:35:26.301Z,97038.81
2023-12-13T00:38:28.040Z,97030.13
2023-12-13T00:41:29.783Z,97027.56
2023-12-13T00:44:31.416Z,97037.09
2023-12-13T00:47:33.279Z,97032.81
2023-12-13T00:50:35.478Z,97030.34
2023-12-13T00:53:37.131Z,97032.06
2023-12-13T00:56:38.859Z,97020.88
2023-12-13T00:59:40.527Z,97015.75
2023-12-13T01:02:42.143Z,97014.84
2023-12-13T01:05:44.024Z,97017.38
2023-12-13T01:08:45.648Z,97012.06
2023-12-13T01:11:47.179Z,97000.88
2023-12-13T01:14:48.853Z,96996.50
2023-12-13T01:17:50.551Z,96997.38
2023-12-13T01:20:52.203Z,97005.16
2023-12-13T01:23:53.829Z,97001.72
2023-12-13T01:26:55.579Z,97005.19
2023-12-13T01:29:57.217Z,97012.78
2023-12-13T01:32:58.890Z,97021.50
2023-12-13T01:36:03.374Z,97015.56
2023-12-13T01:39:04.934Z,97018.25
2023-12-13T01:42:06.626Z,97018.13
2023-12-13T01:45:10.037Z,97024.28
2023-12-13T01:48:12.563Z,97024.13
2023-12-13T01:51:14.293Z,97018.13
2023-12-13T01:54:16.809Z,97006.13
2023-12-13T01:57:18.281Z,97009.50
2023-12-13T02:00:19.958Z,97011.19
2023-12-13T02:03:22.034Z,97003.38
2023-12-13T02:06:23.660Z,97003.41
2023-12-13T02:09:25.276Z,96997.41
2023-12-13T02:12:26.922Z,96982.56
2023-12-13T02:15:28.521Z,96980.97
2023-12-13T02:18:30.235Z,96980.91
2023-12-13T02:21:32.261Z,96977.41
2023-12-13T02:24:33.979Z,96974.75
2023-12-13T02:27:35.784Z,96965.31
2023-12-13T02:30:37.541Z,96960.22
2023-12-13T02:33:42.257Z,96961.19
2023-12-13T02:36:47.001Z,96962.94
2023-12-13T02:39:48.570Z,96962.97
2023-12-13T02:42:50.340Z,96964.59
2023-12-13T02:45:52.328Z,96962.84
2023-12-13T02:48:54.020Z,96960.19
2023-12-13T02:51:55.981Z,96956.78
2023-12-13T02:54:57.785Z,96953.06
2023-12-13T02:58:02.509Z,96942.56
2023-12-13T03:01:04.411Z,96950.47
2023-12-13T03:04:06.213Z,96938.41
2023-12-13T03:07:07.905Z,96927.22
2023-12-13T03:10:09.989Z,96921.22
2023-12-13T03:13:11.686Z,96918.63
2023-12-13T03:16:13.354Z,96920.25
2023-12-13T03:19:15.216Z,96908.06
2023-12-13T03:22:16.852Z,96909.81
2023-12-13T03:25:19.108Z,96913.22
2023-12-13T03:28:20.904Z,96896.72
2023-12-13T03:31:22.514Z,96896.72
2023-12-13T03:34:24.185Z,96901.16
2023-12-13T03:37:25.900Z,96894.16
2023-12-13T03:40:27.668Z,96895.13
2023-12-13T03:43:29.292Z,96884.69
2023-12-13T03:46:31.067Z,96875.22
2023-12-13T03:49:33.811Z,96882.09
2023-12-13T03:52:35.633Z,96883.78
2023-12-13T03:55:37.371Z,96875.31
2023-12-13T03:58:39.672Z,96871.00
2023-12-13T04:01:41.369Z,96867.13
2023-12-13T04:04:43.307Z,96873.19
2023-12-13T04:07:45.055Z,96878.50
2023-12-13T04:10:46.887Z,96868.88
2023-12-13T04:13:48.594Z,96863.84
2023-12-13T04:16:50.270Z,96863.69
2023-12-13T04:19:52.051Z,96867.19
2023-12-13T04:22:53.774Z,96852.81
2023-12-13T04:25:55.530Z,96863.19
2023-12-13T04:28:57.223Z,96857.97
2023-12-13T04:31:58.930Z,96846.69
2023-12-13T04:35:00.594Z,96849.75
2023-12-13T04:38:02.290Z,96849.75
2023-12-13T04:41:04.145Z,96845.53
2023-12-13T04:44:08.860Z,96854.03
2023-12-13T04:47:10.613Z,96854.00
2023-12-13T04:50:12.539Z,96846.81
2023-12-13T04:53:14.236Z,96854.69
2023-12-13T04:56:15.874Z,96856.56
2023-12-13T04:59:17.574Z,96858.72
2023-12-13T05:02:31.640Z,96855.19
2023-12-13T05:05:37.872Z,96851.78
2023-12-13T05:08:39.721Z,96849.19
2023-12-13T05:11:41.609Z,96842.28
2023-12-13T05:14:43.354Z,96830.16
2023-12-13T05:17:45.976Z,96831.88
2023-12-13T05:20:49.785Z,96830.97
2023-12-13T05:23:51.439Z,96827.53
2023-12-13T05:26:53.124Z,96815.44
2023-12-13T05:29:54.787Z,96815.50
2023-12-13T05:32:56.375Z,96810.34
2023-12-13T05:35:57.981Z,96806.00
2023-12-13T05:38:59.653Z,96819.03
2023-12-13T05:42:01.463Z,96802.50
2023-12-13T05:45:03.318Z,96808.59
2023-12-13T05:48:05.336Z,96813.75
2023-12-13T05:51:07.533Z,96806.84
2023-12-13T05:54:09.206Z,96805.19
2023-12-13T05:57:11.607Z,96805.25
2023-12-13T06:00:14.226Z,96797.53
2023-12-13T06:03:16.406Z,96799.13
2023-12-13T06:06:18.143Z,96801.69
2023-12-13T06:09:20.070Z,96803.41
2023-12-13T06:12:21.844Z,96799.13
2023-12-13T06:15:23.583Z,96800.03
2023-12-13T06:18:25.473Z,96803.53
2023-12-13T06:21:27.476Z,96800.09
2023-12-13T06:24:31.784Z,96799.16
2023-12-13T06:27:34.397Z,96801.75
2023-12-13T06:30:36.299Z,96788.72
2023-12-13T06:33:37.983Z,96786.13
2023-12-13T06:36:39.829Z,96784.47
2023-12-13T06:39:41.489Z,96789.66
2023-12-13T06:42:43.368Z,96793.03
2023-12-13T06:45:45.053Z,96791.31
2023-12-13T06:48:47.769Z,96788.72
2023-12-13T06:51:51.952Z,96795.56
2023-12-13T06:54:53.932Z,96782.63
2023-12-13T06:58:05.524Z,96779.19
2023-12-13T07:01:07.326Z,96769.75
2023-12-13T07:04:11.404Z,96778.47
2023-12-13T07:07:16.662Z,96767.06
2023-12-13T07:10:18.664Z,96774.09
2023-12-13T07:13:20.403Z,96777.88
2023-12-13T07:16:22.071Z,96776.00
2023-12-13T07:19:23.748Z,96778.59
2023-12-13T07:22:25.541Z,96777.81
2023-12-13T07:25:27.604Z,96763.16
2023-12-13T07:28:29.343Z,96768.25
2023-12-13T07:31:31.042Z,96775.00
2023-12-13T07:34:32.772Z,96770.78
2023-12-13T07:37:34.589Z,96778.78
2023-12-13T07:40:36.306Z,96774.19
2023-12-13T07:43:38.100Z,96769.75
2023-12-13T07:46:40.008Z,96767.34
2023-12-13T07:49:42.219Z,96764.59
2023-12-13T07:52:44.254Z,96756.00
2023-12-13T07:55:46.736Z,96762.81
2023-12-13T07:58:48.293Z,96754.97
2023-12-13T08:01:50.113Z,96762.94
2023-12-13T08:04:51.846Z,96766.06
2023-12-13T08:07:53.624Z,96769.50
2023-12-13T08:10:55.384Z,96757.38
2023-12-13T08:13:57.381Z,96761.00
2023-12-13T08:17:01.392Z,96758.59
2023-12-13T08:20:03.232Z,96764.50
2023-12-13T08:23:05.746Z,96751.25
2023-12-13T08:26:07.629Z,96755.56
2023-12-13T08:29:09.751Z,96745.38
2023-12-13T08:32:11.546Z,96759.00
2023-12-13T08:35:13.227Z,96764.03
2023-12-13T08:38:15.368Z,96768.19
2023-12-13T08:41:17.204Z,96770.34
2023-12-13T08:44:20.548Z,96776.28
2023-12-13T08:47:23.565Z,96778.59
2023-12-13T08:50:25.122Z,96772.75
2023-12-13T08:53:26.624Z,96771.03
2023-12-13T08:56:28.213Z,96770.97
2023-12-13T08:59:29.877Z,96771.84
2023-12-13T09:02:31.443Z,96770.03
2023-12-13T09:05:33.143Z,96769.16
2023-12-13T09:08:34.745Z,96779.53
2023-12-13T09:11:36.796Z,96774.94
2023-12-13T09:14:38.458Z,96773.84
2023-12-13T09:17:41.840Z,96777.09
2023-12-13T09:20:43.505Z,96770.88
2023-12-13T09:23:46.400Z,96780.38
2023-12-13T09:26:48.499Z,96780.16
2023-12-13T09:29:50.049Z,96785.78
2023-12-13T09:32:51.743Z,96795.13
2023-12-13T09:35:54.350Z,96783.81
2023-12-13T09:38:57.007Z,96778.28
2023-12-13T09:42:01.674Z,96786.75
2023-12-13T09:45:04.860Z,96789.63
2023-12-13T09:48:06.532Z,96793.81
2023-12-13T09:51:08.214Z,96786.47
2023-12-13T09:54:09.855Z,96784.16
2023-12-13T09:57:11.465Z,96788.16
2023-12-13T10:00:14.093Z,96791.72
2023-12-13T10:03:15.809Z,96793.47
2023-12-13T10:06:17.452Z,96779.56
2023-12-13T10:09:19.452Z,96782.03
2023-12-13T10:12:21.047Z,96777.44
2023-12-13T10:15:23.491Z,96775.28
2023-12-13T10:18:25.334Z,96768.63
2023-12-13T10:21:27.031Z,96766.97
2023-12-13T10:24:29.995Z,96765.97
2023-12-13T10:27:32.516Z,96764.47
2023-12-13T10:30:34.578Z,96764.53
2023-12-13T10:33:36.600Z,96766.31
2023-12-13T10:36:38.313Z,96768.59
2023-12-13T10:39:43.508Z,96769.25
2023-12-13T10:42:56.438Z,96773.41
2023-12-13T10:46:01.670Z,96777.09
2023-12-13T10:49:05.290Z,96756.94
2023-12-13T10:52:07.160Z,96756.66
2023-12-13T10:55:09.756Z,96763.31
2023-12-13T10:58:11.692Z,96769.09
2023-12-13T11:01:13.574Z,96773.09
2023-12-13T11:04:18.098Z,96772.69
2023-12-13T11:07:22.631Z,96787.56
2023-12-13T11:10:24.955Z,96781.09
2023-12-13T11:13:26.660Z,96788.53
2023-12-13T11:16:28.568Z,96782.94
2023-12-13T11:19:31.233Z,96779.47
2023-12-13T11:22:35.058Z,96787.56
2023-12-13T11:25:38.044Z,96787.28
2023-12-13T11:28:39.648Z,96793.41
2023-12-13T11:31:51.246Z,96793.47
2023-12-13T11:34:53.296Z,96784.19
2023-12-13T11:37:55.710Z,96791.44
2023-12-13T11:40:57.500Z,96777.44
2023-12-13T11:43:59.248Z,96771.06
2023-12-13T11:47:04.906Z,96755.63
2023-12-13T11:50:08.566Z,96768.81
2023-12-13T11:53:13.948Z,96759.78
2023-12-13T11:56:18.005Z,96749.44
2023-12-13T11:59:22.851Z,96749.56
2023-12-13T12:02:24.559Z,96744.28
2023-12-13T12:05:26.347Z,96743.28
2023-12-13T12:08:28.032Z,96737.41
2023-12-13T12:11:29.715Z,96727.63
2023-12-13T12:14:31.909Z,96723.22
2023-12-13T12:17:34.811Z,96723.16
2023-12-13T12:20:36.849Z,96725.22
2023-12-13T12:23:45.035Z,96710.16
2023-12-13T12:26:48.622Z,96724.25
2023-12-13T12:29:50.216Z,96724.34
2023-12-13T12:32:51.894Z,96716.78
2023-12-13T12:35:53.558Z,96715.97
2023-12-13T12:38:55.198Z,96714.91
2023-12-13T12:41:56.805Z,96710.72
2023-12-13T12:44:58.526Z,96717.34
2023-12-13T12:48:00.391Z,96711.78
2023-12-13T12:51:02.208Z,96715.88
2023-12-13T12:54:04.153Z,96712.75
2023-12-13T12:57:05.847Z,96713.50
2023-12-13T13:00:07.959Z,96712.09
2023-12-13T13:03:09.729Z,96709.97
2023-12-13T13:06:45.413Z,96703.03
2023-12-13T13:09:47.538Z,96696.44
2023-12-13T13:12:49.232Z,96695.63
2023-12-13T13:15:51.065Z,96701.28
2023-12-13T13:18:52.775Z,96698.06
2023-12-13T13:21:55.897Z,96708.13
2023-12-13T13:24:58.277Z,96719.84
2023-12-13T13:27:59.928Z,96715.06
2023-12-13T13:31:01.607Z,96719.19
2023-12-13T13:34:03.262Z,96722.47
2023-12-13T13:37:04.987Z,96723.63
2023-12-13T13:40:07.185Z,96720.28
2023-12-13T13:43:08.957Z,96725.13
2023-12-13T13:46:12.979Z,96703.06
2023-12-13T13:49:14.726Z,96711.81
2023-12-13T13:52:16.333Z,96713.56
2023-12-13T13:55:18.541Z,96709.16
2023-12-13T13:58:20.291Z,96714.88
2023-12-13T14:01:21.991Z,96712.88
2023-12-13T14:04:24.335Z,96721.59
2023-12-13T14:07:25.904Z,96718.81
2023-12-13T14:10:28.147Z,96721.03
2023-12-13T14:13:30.029Z,96726.41
2023-12-13T14:16:31.832Z,96731.53
2023-12-13T14:19:33.714Z,96732.56
2023-12-13T14:22:35.372Z,96740.06
2023-12-13T14:25:37.414Z,96755.44
2023-12-13T14:28:39.051Z,96760.88
2023-12-13T14:31:40.701Z,96755.19
2023-12-13T14:34:42.312Z,96759.69
2023-12-13T14:37:44.235Z,96755.81
2023-12-13T14:40:48.357Z,96757.25
2023-12-13T14:43:50.555Z,96765.25
2023-12-13T14:46:52.246Z,96762.66
2023-12-13T14:49:54.028Z,96773.16
2023-12-13T14:52:55.635Z,96777.34
2023-12-13T14:55:57.499Z,96774.03
2023-12-13T14:58:59.854Z,96780.97
2023-12-13T15:02:01.563Z,96777.53
2023-12-13T15:05:03.291Z,96776.66
2023-12-13T15:08:07.799Z,96778.16
2023-12-13T15:11:09.517Z,96780.78
2023-12-13T15:14:11.315Z,96785.78
2023-12-13T15:17:12.959Z,96790.09
2023-12-13T15:20:14.675Z,96782.44
2023-12-13T15:23:18.180Z,96785.09
2023-12-13T15:26:19.979Z,96786.94
2023-12-13T15:29:21.653Z,96786.06
2023-12-13T15:32:24.104Z,96788.75
2023-12-13T15:35:25.682Z,96788.13
2023-12-13T15:38:27.276Z,96789.94
2023-12-13T15:41:28.954Z,96795.00
2023-12-13T15:44:30.888Z,96795.88
2023-12-13T15:47:33.649Z,96797.59
2023-12-13T15:50:38.061Z,96803.06
2023-12-13T15:53:39.686Z,96805.63
2023-12-13T15:56:44.791Z,96810.84
2023-12-13T15:59:46.423Z,96815.34
2023-12-13T16:02:48.215Z,96812.84
2023-12-13T16:05:50.033Z,96819.66
2023-12-13T16:08:51.700Z,96819.59
2023-12-13T16:11:53.412Z,96815.63
2023-12-13T16:14:55.066Z,96820.00
2023-12-13T16:17:56.795Z,96814.91
2023-12-13T16:20:59.246Z,96819.09
2023-12-13T16:24:00.969Z,96818.38
2023-12-13T16:27:02.614Z,96814.19
2023-12-13T16:30:04.486Z,96813.38
2023-12-13T16:33:06.968Z,96814.31
2023-12-13T16:36:08.745Z,96819.50
2023-12-13T16:39:12.798Z,96821.41
2023-12-13T16:42:15.306Z,96830.88
2023-12-13T16:45:17.035Z,96831.75
2023-12-13T16:48:18.823Z,96830.66
2023-12-13T16:51:21.734Z,96835.03
2023-12-13T16:54:23.809Z,96833.53
2023-12-13T16:57:25.489Z,96838.81
2023-12-13T17:00:27.437Z,96833.56
2023-12-13T17:03:30.554Z,96843.91
2023-12-13T17:06:32.440Z,96864.59
2023-12-13T17:09:34.309Z,96865.69
2023-12-13T17:12:36.277Z,96873.22
2023-12-13T17:15:41.523Z,96875.44
2023-12-13T17:18:54.225Z,96885.69
2023-12-13T17:21:55.853Z,96882.00
2023-12-13T17:24:59.367Z,96881.19
2023-12-13T17:28:01.022Z,96886.56
2023-12-13T17:31:02.731Z,96883.88
2023-12-13T17:34:53.664Z,96886.66
2023-12-13T17:38:10.121Z,96901.38
2023-12-13T17:41:16.478Z,96898.09
2023-12-13T17:44:19.785Z,96904.00
2023-12-13T17:47:29.158Z,96903.22
2023-12-13T17:50:30.999Z,96911.78
2023-12-13T17:53:36.919Z,96908.44
2023-12-13T17:56:38.629Z,96918.84
2023-12-13T17:59:40.618Z,96934.31
2023-12-13T18:02:42.445Z,96928.56
2023-12-13T18:05:45.711Z,96938.19
2023-12-13T18:08:48.484Z,96927.75
2023-12-13T18:11:50.180Z,96938.13
2023-12-13T18:14:52.099Z,96950.00
2023-12-13T18:17:53.845Z,96958.81
2023-12-13T18:20:55.641Z,96966.06
2023-12-13T18:23:57.302Z,96968.78
2023-12-13T18:27:01.862Z,96981.72
2023-12-13T18:30:06.339Z,96987.94
2023-12-13T18:33:08.575Z,96997.19
2023-12-13T18:36:11.006Z,96998.06
2023-12-13T18:39:14.965Z,97004.25
2023-12-13T18:42:16.610Z,97009.59
2023-12-13T18:45:20.318Z,97007.00
2023-12-13T18:48:22.085Z,97020.69
2023-12-13T18:51:23.699Z,97018.97
2023-12-13T18:54:29.712Z,97025.81
2023-12-13T18:57:31.420Z,97035.28
2023-12-13T19:00:33.069Z,97037.91
2023-12-13T19:03:34.801Z,97046.78
2023-12-13T19:06:36.763Z,97038.94
2023-12-13T19:09:39.066Z,97050.16
2023-12-13T19:12:40.692Z,97061.47
2023-12-13T19:15:42.681Z,97054.59
2023-12-13T19:18:44.427Z,97054.66
2023-12-13T19:21:46.889Z,97056.41
2023-12-13T19:24:48.408Z,97065.81
2023-12-13T19:27:49.998Z,97063.31
2023-12-13T19:30:51.742Z,97071.94
2023-12-13T19:33:53.961Z,97071.03
2023-12-13T19:36:55.596Z,97074.47
2023-12-13T19:39:57.233Z,97078.84
2023-12-13T19:43:00.754Z,97079.69
2023-12-13T19:46:03.240Z,97096.16
2023-12-13T19:49:04.989Z,97091.84
2023-12-13T19:52:07.185Z,97095.28
2023-12-13T19:55:13.656Z,97091.75
2023-12-13T19:58:16.219Z,97100.50
2023-12-13T20:01:17.942Z,97091.88
2023-12-13T20:04:19.713Z,97105.75
2023-12-13T20:07:21.427Z,97118.69
2023-12-13T20:10:23.000Z,97117.88
2023-12-13T20:13:24.645Z,97118.66
2023-12-13T20:16:26.452Z,97118.66
2023-12-13T20:19:28.196Z,97120.47
2023-12-13T20:22:29.893Z,97124.03
2023-12-13T20:25:31.870Z,97135.22
2023-12-13T20:28:38.141Z,97134.28
2023-12-13T20:31:39.879Z,97132.50
2023-12-13T20:34:41.665Z,97139.34
2023-12-13T20:37:43.296Z,97150.56
2023-12-13T20:40:44.954Z,97147.13
2023-12-13T20:43:46.690Z,97153.13
2023-12-13T20:46:49.493Z,97155.69
2023-12-13T20:49:52.027Z,97150.59
2023-12-13T20:52:54.504Z,97152.38
2023-12-13T20:55:56.425Z,97160.00
2023-12-13T20:58:58.139Z,97169.47
2023-12-13T21:01:59.791Z,97171.19
2023-12-13T21:05:01.509Z,97176.34
2023-12-13T21:08:03.225Z,97179.75
2023-12-13T21:11:05.125Z,97179.78
2023-12-13T21:14:07.083Z,97184.97
2023-12-13T21:17:09.038Z,97192.75
2023-12-13T21:20:11.410Z,97197.88
2023-12-13T21:23:15.636Z,97200.41
2023-12-13T21:26:18.941Z,97190.97
2023-12-13T21:29:20.488Z,97200.50
2023-12-13T21:32:22.457Z,97192.72
2023-12-13T21:35:24.140Z,97196.19
2023-12-13T21:38:25.769Z,97199.66
2023-12-13T21:41:27.402Z,97203.06
2023-12-13T21:44:29.334Z,97210.84
2023-12-13T21:47:32.547Z,97211.72
2023-12-13T21:50:35.867Z,97221.22
2023-12-13T21:53:37.491Z,97223.94
2023-12-13T21:56:39.125Z,97228.22
2023-12-13T21:59:40.745Z,97230.84
2023-12-13T22:02:42.772Z,97233.44
2023-12-13T22:05:44.546Z,97241.16
2023-12-13T22:08:46.256Z,97257.56
2023-12-13T22:11:50.872Z,97253.22
2023-12-13T22:14:52.576Z,97257.56
2023-12-13T22:17:56.265Z,97261.84
2023-12-13T22:20:58.393Z,97263.59
2023-12-13T22:23:59.972Z,97263.63
2023-12-13T22:27:05.062Z,97273.16
2023-12-13T22:30:07.265Z,97271.34
2023-12-13T22:33:09.300Z,97275.75
2023-12-13T22:36:10.990Z,97281.84
2023-12-13T22:39:12.675Z,97283.53
2023-12-13T22:42:14.389Z,97286.16
2023-12-13T22:45:16.191Z,97295.69
2023-12-13T22:48:17.863Z,97300.81
2023-12-13T22:51:19.500Z,97303.41
2023-12-13T22:54:21.134Z,97310.25
2023-12-13T22:57:27.623Z,97305.97
2023-12-13T23:00:29.557Z,97305.88
2023-12-13T23:03:31.205Z,97311.91
2023-12-13T23:06:35.598Z,97311.94
2023-12-13T23:09:37.210Z,97323.16
2023-12-13T23:12:38.775Z,97323.97
2023-12-13T23:15:41.217Z,97324.00
2023-12-13T23:18:43.053Z,97323.22
2023-12-13T23:21:45.538Z,97324.91
2023-12-13T23:24:47.026Z,97333.59
2023-12-13T23:27:48.659Z,97337.06
2023-12-13T23:30:50.311Z,97346.53
2023-12-13T23:33:52.082Z,97342.25
2023-12-13T23:36:53.691Z,97347.50
2023-12-13T23:39:55.243Z,97351.75
2023-12-13T23:42:56.849Z,97355.28
2023-12-13T23:45:58.500Z,97355.28
2023-12-13T23:49:00.441Z,97361.31
2023-12-13T23:52:02.563Z,97363.91
2023-12-13T23:55:04.454Z,97369.88
2023-12-13T23:58:06.050Z,97376.78
